»·PEaware :: N8DL KASE-KDEN

N8DL :: KASE-KDEN

FLIGHT INFORMATION

Flight Status: Arrived
Operator: Privately registered:
United States
More flights under this callsign
Pilot: Dean L. (8400)
Aircraft: Cessna 560XL Citation Excel
(C56X)
More flights by this aircraft type
Origin: KASE Aspen-Pitkin Co/Sardy
United States
Destination: KDEN Denver Intl
United States
More flights between these airports :: More routes between these airports
Route: LINDZ9 LINDZ IDENE JNETT SSKII2
File this flight plan on PilotEdge
Remarks: RMK / SIMBRIEF
Altitude:
(Current/Filed)
31,000ft
Speed:
(Current/Filed)
430kts
Departed: 01-Apr-21 04:07 PM
Arrived: 01-Apr-21 04:38 PM
Distance/Time
Traveled:
108nm/0:31
Distance/Time
To Go:
Arrived

Flight Plot

Page will automatically refresh every two minutes.

Flight plan parsing failed; only flown route is shown


Map Options




Map Legend


Flown Route
Filed Route
Departure Airport
Arrival Airport
Navaid (VOR, NDB)
Fix

Horizontal Profiles

Position Reports

Time Latitude Longitude Heading Altitude Ground
Speed
01-Apr-21 15:50 39.219393 -106.864949 70 7842ft 0kts
01-Apr-21 15:51 39.219393 -106.864949 70 7842ft 0kts
01-Apr-21 15:52 39.219393 -106.864949 70 7842ft 0kts
01-Apr-21 15:53 39.219393 -106.864949 70 7841ft 0kts
01-Apr-21 15:54 39.219397 -106.864934 70 7842ft 0kts
01-Apr-21 15:55 39.219402 -106.864916 70 7842ft 0kts
01-Apr-21 15:56 39.219407 -106.864899 70 7842ft 0kts
01-Apr-21 15:57 39.219412 -106.864881 70 7842ft 0kts
01-Apr-21 15:58 39.219416 -106.864863 70 7842ft 0kts
01-Apr-21 15:59 39.219421 -106.864846 70 7842ft 0kts
01-Apr-21 16:00 39.219279 -106.864568 272 7842ft 0kts
01-Apr-21 16:01 39.219279 -106.864569 272 7842ft 0kts
01-Apr-21 16:02 39.216371 -106.864201 163 7842ft 23kts
01-Apr-21 16:03 39.212067 -106.862579 221 7842ft 0kts
01-Apr-21 16:04 39.212065 -106.862581 221 7842ft 0kts
01-Apr-21 16:05 39.212554 -106.863751 340 7842ft 17kts
01-Apr-21 16:06 39.245197 -106.874231 2 9641ft 167kts
01-Apr-21 16:07 39.296263 -106.866758 3 13554ft 189kts
01-Apr-21 16:08 39.353725 -106.856657 8 16029ft 286kts
01-Apr-21 16:09 39.442946 -106.846054 355 19784ft 332kts
01-Apr-21 16:10 39.504117 -106.770599 89 22851ft 369kts
01-Apr-21 16:11 39.444081 -106.655143 131 23003ft 398kts
01-Apr-21 16:12 39.380194 -106.537644 122 22996ft 383kts
01-Apr-21 16:13 39.334535 -106.419660 110 23000ft 367kts
01-Apr-21 16:14 39.296942 -106.292935 111 23003ft 394kts
01-Apr-21 16:15 39.257962 -106.157602 103 23000ft 403kts
01-Apr-21 16:16 39.265902 -106.022890 77 22371ft 369kts
01-Apr-21 16:17 39.287589 -105.895181 77 21372ft 361kts
01-Apr-21 16:18 39.309644 -105.763815 77 20384ft 388kts
01-Apr-21 16:19 39.339686 -105.632944 64 19123ft 363kts
01-Apr-21 16:20 39.381782 -105.517312 64 17325ft 350kts
01-Apr-21 16:21 39.424377 -105.408255 57 16401ft 324kts
01-Apr-21 16:22 39.475722 -105.312747 54 15471ft 321kts
01-Apr-21 16:23 39.526465 -105.219115 55 15002ft 308kts
01-Apr-21 16:24 39.574522 -105.130162 55 14922ft 299kts
01-Apr-21 16:25 39.623959 -105.038298 55 13841ft 317kts
01-Apr-21 16:26 39.674552 -104.944016 55 13023ft 313kts
01-Apr-21 16:27 39.725341 -104.857556 36 12996ft 292kts
01-Apr-21 16:28 39.803962 -104.840227 0 12262ft 298kts
01-Apr-21 16:29 39.888227 -104.839362 0 11065ft 301kts
01-Apr-21 16:30 39.966492 -104.838004 1 9841ft 265kts
01-Apr-21 16:31 40.029680 -104.814585 20 8728ft 217kts
01-Apr-21 16:32 40.050454 -104.761794 99 8193ft 171kts
01-Apr-21 16:33 40.033094 -104.710991 126 7822ft 146kts
01-Apr-21 16:34 39.995387 -104.685009 177 7516ft 179kts
01-Apr-21 16:35 39.944152 -104.685740 180 7117ft 198kts
01-Apr-21 16:36 39.890547 -104.686829 179 5724ft 171kts
01-Apr-21 16:37 39.868431 -104.686851 151 5438ft 15kts
01-Apr-21 16:38 39.868159 -104.685511 92 5438ft 17kts
01-Apr-21 16:39 39.863899 -104.683314 151 5438ft 6kts
01-Apr-21 16:40 39.863668 -104.683148 150 5438ft 0kts

Navigation Log

Ident Type
Flight plan parsing failed, navigation log unavailable